createdAt,value
2022-08-07T00:00:56.804Z,97684.84
2022-08-07T00:03:36.735Z,97683.48
2022-08-07T00:06:02.261Z,97689.21
2022-08-07T00:08:32.942Z,97684.58
2022-08-07T00:11:03.221Z,97687.88
2022-08-07T00:13:35.549Z,97690.32
2022-08-07T00:16:07.567Z,97694.69
2022-08-07T00:18:37.415Z,97702.91
2022-08-07T00:21:57.260Z,97697.17
2022-08-07T00:23:42.292Z,97704.58
2022-08-07T00:26:18.588Z,97699.91
2022-08-07T00:28:56.774Z,97695.25
2022-08-07T00:31:37.558Z,97705.65
2022-08-07T00:34:08.949Z,97700.46
2022-08-07T00:36:42.745Z,97703.46
2022-08-07T00:39:12.886Z,97710.61
2022-08-07T00:41:45.371Z,97716.08
2022-08-07T00:44:15.145Z,97720.19
2022-08-07T00:46:45.110Z,97722.37
2022-08-07T00:49:24.950Z,97732.22
2022-08-07T00:51:56.739Z,97730.86
2022-08-07T00:54:22.503Z,97725.11
2022-08-07T00:56:52.476Z,97730.33
2022-08-07T01:02:13.966Z,97739.91
2022-08-07T01:04:47.414Z,97740.73
2022-08-07T01:07:18.223Z,97733.06
2022-08-07T01:10:05.812Z,97747.58
2022-08-07T01:12:29.894Z,97747.83
2022-08-07T01:14:51.096Z,97758.23
2022-08-07T01:17:22.549Z,97757.70
2022-08-07T01:19:54.473Z,97758.23
2022-08-07T01:22:29.493Z,97756.86
2022-08-07T01:24:55.740Z,97754.67
2022-08-07T01:27:31.984Z,97759.33
2022-08-07T01:29:56.997Z,97765.91
2022-08-07T01:32:27.068Z,97770.83
2022-08-07T01:34:57.235Z,97773.30
2022-08-07T01:37:27.263Z,97777.68
2022-08-07T01:40:00.024Z,97782.34
2022-08-07T01:42:37.844Z,97789.17
2022-08-07T01:45:03.340Z,97793.02
2022-08-07T01:48:19.604Z,97798.50
2022-08-07T01:50:11.276Z,97794.09
2022-08-07T01:52:49.601Z,97802.31
2022-08-07T01:55:21.996Z,97802.86
2022-08-07T01:58:06.136Z,97798.48
2022-08-07T02:00:18.843Z,97806.14
2022-08-07T02:03:19.274Z,97811.06
2022-08-07T02:05:43.344Z,97818.46
2022-08-07T02:08:14.021Z,97819.00
2022-08-07T02:10:45.076Z,97821.44
2022-08-07T02:13:19.583Z,97826.09
2022-08-07T02:15:51.012Z,97824.73
2022-08-07T02:18:25.917Z,97827.20
2022-08-07T02:20:57.433Z,97828.56
2022-08-07T02:23:30.206Z,97834.28
2022-08-07T02:26:31.267Z,97842.80
2022-08-07T02:28:48.345Z,97842.50
2022-08-07T02:31:28.871Z,97844.97
2022-08-07T02:34:01.936Z,97846.89
2022-08-07T02:36:33.049Z,97851.53
2022-08-07T02:39:16.022Z,97851.23
2022-08-07T02:41:37.106Z,97857.81
2022-08-07T02:44:09.180Z,97860.82
2022-08-07T02:46:46.738Z,97867.66
2022-08-07T02:49:28.861Z,97866.28
2022-08-07T02:51:52.175Z,97877.23
2022-08-07T02:54:22.008Z,97880.81
2022-08-07T02:56:53.583Z,97887.66
2022-08-07T02:59:27.927Z,97890.39
2022-08-07T03:02:02.534Z,97884.38
2022-08-07T03:04:32.906Z,97886.81
2022-08-07T03:07:10.476Z,97886.28
2022-08-07T03:09:43.495Z,97895.56
2022-08-07T03:12:22.357Z,97883.48
2022-08-07T03:14:52.607Z,97883.48
2022-08-07T03:17:24.205Z,97898.05
2022-08-07T03:19:54.966Z,97899.13
2022-08-07T03:22:29.404Z,97904.34
2022-08-07T03:24:57.499Z,97894.22
2022-08-07T03:27:30.694Z,97896.95
2022-08-07T03:30:03.789Z,97899.95
2022-08-07T03:32:37.523Z,97900.26
2022-08-07T03:35:17.650Z,97898.89
2022-08-07T03:37:53.777Z,97905.45
2022-08-07T03:40:18.467Z,97911.48
2022-08-07T03:42:54.932Z,97910.11
2022-08-07T03:45:30.804Z,97915.88
2022-08-07T03:48:01.959Z,97915.88
2022-08-07T03:50:43.267Z,97913.41
2022-08-07T03:53:12.413Z,97911.78
2022-08-07T03:55:58.109Z,97912.04
2022-08-07T03:58:33.238Z,97914.52
2022-08-07T04:00:53.299Z,97918.88
2022-08-07T04:03:26.451Z,97916.14
2022-08-07T04:05:58.717Z,97920.81
2022-08-07T04:08:35.064Z,97916.71
2022-08-07T04:12:15.707Z,97919.72
2022-08-07T04:14:10.430Z,97918.34
2022-08-07T04:16:14.995Z,97914.24
2022-08-07T04:18:59.573Z,97916.98
2022-08-07T04:21:16.930Z,97916.16
2022-08-07T04:24:03.736Z,97924.94
2022-08-07T04:26:22.950Z,97921.35
2022-08-07T04:28:54.564Z,97914.79
2022-08-07T04:32:02.125Z,97922.72
2022-08-07T04:33:58.859Z,97918.61
2022-08-07T04:36:28.702Z,97921.35
2022-08-07T04:38:59.408Z,97929.05
2022-08-07T04:41:30.668Z,97930.68
2022-08-07T04:44:13.172Z,97936.98
2022-08-07T04:46:59.639Z,97931.80
2022-08-07T04:49:29.287Z,97928.77
2022-08-07T04:52:08.967Z,97934.78
2022-08-07T04:54:53.981Z,97937.53
2022-08-07T04:58:14.423Z,97934.23
2022-08-07T05:00:18.782Z,97941.38
2022-08-07T05:02:54.395Z,97940.02
2022-08-07T05:05:53.027Z,97941.62
2022-08-07T05:08:07.142Z,97938.88
2022-08-07T05:10:44.283Z,97941.06
2022-08-07T05:14:55.125Z,97940.52
2022-08-07T05:16:11.250Z,97938.08
2022-08-07T05:18:53.462Z,97933.97
2022-08-07T05:21:59.781Z,97943.00
2022-08-07T05:24:12.121Z,97942.75
2022-08-07T05:26:41.901Z,97942.45
2022-08-07T05:29:16.892Z,97938.08
2022-08-07T05:31:47.459Z,97938.89
2022-08-07T05:34:21.290Z,97936.16
2022-08-07T05:36:56.218Z,97942.45
2022-08-07T05:40:16.880Z,97941.34
2022-08-07T05:42:00.499Z,97942.98
2022-08-07T05:44:29.375Z,97938.08
2022-08-07T05:47:00.347Z,97935.34
2022-08-07T05:49:40.841Z,97931.80
2022-08-07T05:52:03.206Z,97935.91
2022-08-07T05:54:53.853Z,97944.66
2022-08-07T05:57:06.354Z,97946.02
2022-08-07T05:59:55.767Z,97941.05
2022-08-07T06:02:22.597Z,97947.09
2022-08-07T06:04:51.359Z,97946.84
2022-08-07T06:07:23.036Z,97954.52
2022-08-07T06:10:05.792Z,97949.86
2022-08-07T06:12:31.917Z,97955.09
2022-08-07T06:14:58.700Z,97948.77
2022-08-07T06:17:31.904Z,97942.78
2022-08-07T06:20:04.010Z,97942.75
2022-08-07T06:22:31.729Z,97952.03
2022-08-07T06:25:03.029Z,97953.97
2022-08-07T06:28:00.434Z,97945.77
2022-08-07T06:30:04.985Z,97946.03
2022-08-07T06:32:34.942Z,97946.03
2022-08-07T06:35:17.841Z,97948.52
2022-08-07T06:37:43.846Z,97948.23
2022-08-07T06:40:16.174Z,97943.87
2022-08-07T06:42:41.670Z,97943.31
2022-08-07T06:45:17.971Z,97941.08
2022-08-07T06:47:48.177Z,97943.28
2022-08-07T06:50:16.486Z,97936.19
2022-08-07T06:52:52.965Z,97936.75
2022-08-07T06:56:00.153Z,97931.54
2022-08-07T06:58:04.537Z,97937.28
2022-08-07T07:00:38.189Z,97934.02
2022-08-07T07:03:10.794Z,97941.41
2022-08-07T07:06:02.384Z,97940.89
2022-08-07T07:08:18.277Z,97942.75
2022-08-07T07:10:47.639Z,97939.73
2022-08-07T07:13:55.743Z,97939.74
2022-08-07T07:15:51.955Z,97930.72
2022-08-07T07:18:33.097Z,97930.72
2022-08-07T07:21:13.437Z,97932.66
2022-08-07T07:24:09.725Z,97925.81
2022-08-07T07:26:31.382Z,97922.79
2022-08-07T07:29:40.657Z,97931.82
2022-08-07T07:31:39.778Z,97922.53
2022-08-07T07:34:10.487Z,97933.16
2022-08-07T07:36:41.976Z,97928.52
2022-08-07T07:39:13.610Z,97934.83
2022-08-07T07:42:02.268Z,97937.83
2022-08-07T07:44:21.411Z,97935.39
2022-08-07T07:46:54.694Z,97933.48
2022-08-07T07:50:33.456Z,97933.74
2022-08-07T07:51:57.558Z,97937.30
2022-08-07T07:54:21.736Z,97940.89
2022-08-07T07:56:53.263Z,97940.34
2022-08-07T07:59:24.607Z,97943.63
2022-08-07T08:02:01.929Z,97937.28
2022-08-07T08:04:27.896Z,97945.52
2022-08-07T08:07:00.642Z,97944.68
2022-08-07T08:09:29.125Z,97949.09
2022-08-07T08:12:02.809Z,97946.88
2022-08-07T08:14:36.484Z,97942.25
2022-08-07T08:17:55.980Z,97942.77
2022-08-07T08:20:17.445Z,97942.52
2022-08-07T08:22:32.621Z,97935.42
2022-08-07T08:25:42.018Z,97938.16
2022-08-07T08:27:57.186Z,97940.34
2022-08-07T08:30:24.361Z,97941.98
2022-08-07T08:32:58.607Z,97941.98
2022-08-07T08:35:39.051Z,97944.97
2022-08-07T08:38:04.764Z,97948.25
2022-08-07T08:43:13.097Z,97943.09
2022-08-07T08:46:00.654Z,97950.17
2022-08-07T08:48:35.930Z,97948.55
2022-08-07T08:52:12.426Z,97941.97
2022-08-07T08:54:19.985Z,97945.53
2022-08-07T08:56:50.377Z,97946.89
2022-08-07T08:59:26.359Z,97952.67
2022-08-07T09:02:13.927Z,97948.83
2022-08-07T09:05:02.134Z,97943.35
2022-08-07T09:07:58.188Z,97943.62
2022-08-07T09:10:49.813Z,97941.14
2022-08-07T09:13:36.941Z,97945.48
2022-08-07T09:16:26.642Z,97959.20
2022-08-07T09:19:03.630Z,97954.81
2022-08-07T09:24:29.017Z,97947.72
2022-08-07T09:24:59.165Z,97960.57
2022-08-07T09:28:00.624Z,97962.80
2022-08-07T09:30:16.385Z,97970.45
2022-08-07T09:33:05.262Z,97970.72
2022-08-07T09:36:01.031Z,97970.45
2022-08-07T09:38:57.755Z,97982.50
2022-08-07T09:41:58.465Z,97990.71
2022-08-07T09:44:32.659Z,97990.45
2022-08-07T09:47:50.720Z,97990.45
2022-08-07T09:50:02.932Z,97997.58
2022-08-07T09:52:33.369Z,97997.58
2022-08-07T09:54:51.706Z,98001.65
2022-08-07T09:57:46.672Z,97995.31
2022-08-07T10:00:18.857Z,98000.80
2022-08-07T10:04:06.192Z,97997.52
2022-08-07T10:06:01.214Z,97994.27
2022-08-07T10:08:46.209Z,97984.95
2022-08-07T10:12:01.635Z,97974.56
2022-08-07T10:14:40.146Z,97968.53
2022-08-07T10:18:02.955Z,97974.83
2022-08-07T10:20:30.284Z,97972.39
2022-08-07T10:23:07.653Z,97972.39
2022-08-07T10:25:46.399Z,97963.88
2022-08-07T10:28:35.370Z,97963.63
2022-08-07T10:31:45.295Z,97967.18
2022-08-07T10:34:38.166Z,97971.84
2022-08-07T10:37:48.876Z,97970.19
2022-08-07T10:40:14.701Z,97967.09
2022-08-07T10:42:56.064Z,97970.96
2022-08-07T10:45:57.630Z,97966.57
2022-08-07T10:48:34.738Z,97974.80
2022-08-07T10:51:16.637Z,97968.77
2022-08-07T10:54:21.890Z,97970.70
2022-08-07T10:57:34.684Z,97977.86
2022-08-07T11:00:09.069Z,97970.16
2022-08-07T11:03:01.496Z,97962.51
2022-08-07T11:06:05.057Z,97965.80
2022-08-07T11:08:47.446Z,97966.61
2022-08-07T11:11:37.571Z,97972.91
2022-08-07T11:14:46.081Z,97970.72
2022-08-07T11:17:09.102Z,97972.39
2022-08-07T11:19:50.453Z,97976.50
2022-08-07T11:22:36.072Z,97979.50
2022-08-07T11:25:08.996Z,97984.98
2022-08-07T11:28:02.554Z,97986.34
2022-08-07T11:30:41.509Z,97981.14
2022-08-07T11:33:14.252Z,97986.02
2022-08-07T11:35:59.504Z,97980.52
2022-08-07T11:38:31.262Z,97985.20
2022-08-07T11:41:08.037Z,97985.22
2022-08-07T11:44:10.658Z,97980.28
2022-08-07T11:46:39.831Z,97979.20
2022-08-07T11:49:51.228Z,97976.73
2022-08-07T11:52:28.981Z,97958.61
2022-08-07T11:55:18.899Z,97986.59
2022-08-07T11:58:00.166Z,97995.66
2022-08-07T12:00:28.553Z,98003.31
2022-08-07T12:03:45.104Z,98012.91
2022-08-07T12:06:39.808Z,98012.08
2022-08-07T12:09:02.199Z,98013.17
2022-08-07T12:11:43.286Z,98006.32
2022-08-07T12:14:25.798Z,98006.88
2022-08-07T12:17:04.318Z,98014.84
2022-08-07T12:20:09.496Z,98009.63
2022-08-07T12:22:56.392Z,98004.95
2022-08-07T12:26:21.360Z,98009.08
2022-08-07T12:28:49.590Z,98007.44
2022-08-07T12:31:26.240Z,98011.00
2022-08-07T12:34:01.971Z,98008.53
2022-08-07T12:36:33.102Z,98009.90
2022-08-07T12:39:09.447Z,98011.27
2022-08-07T12:41:42.869Z,98016.74
2022-08-07T12:44:13.317Z,98011.81
2022-08-07T12:46:50.957Z,98018.93
2022-08-07T12:49:48.567Z,98028.00
2022-08-07T12:52:18.185Z,98032.38
2022-08-07T12:55:17.703Z,98035.66
2022-08-07T12:58:02.068Z,98041.41
2022-08-07T13:00:31.062Z,98043.88
2022-08-07T13:03:08.827Z,98046.87
2022-08-07T13:06:02.071Z,98048.94
2022-08-07T13:08:39.388Z,98051.47
2022-08-07T13:12:02.213Z,98056.17
2022-08-07T13:14:32.828Z,98056.50
2022-08-07T13:17:07.942Z,98063.34
2022-08-07T13:19:51.538Z,98068.05
2022-08-07T13:22:35.772Z,98066.26
2022-08-07T13:25:08.303Z,98068.81
2022-08-07T13:28:11.161Z,98074.11
2022-08-07T13:30:43.480Z,98074.41
2022-08-07T13:33:46.032Z,98073.94
2022-08-07T13:36:00.765Z,98084.86
2022-08-07T13:38:43.839Z,98091.53
2022-08-07T13:41:33.366Z,98092.41
2022-08-07T13:44:10.626Z,98086.67
2022-08-07T13:46:49.712Z,98083.47
2022-08-07T13:52:25.943Z,98087.56
2022-08-07T14:00:26.802Z,98101.82
2022-08-07T14:03:01.638Z,98098.70
2022-08-07T14:05:38.546Z,98089.22
2022-08-07T14:08:10.815Z,98078.57
2022-08-07T14:10:43.739Z,98096.43
2022-08-07T14:13:18.098Z,98093.42
2022-08-07T14:15:56.874Z,98089.63
2022-08-07T14:18:37.469Z,98093.72
2022-08-07T14:21:21.149Z,98088.61
2022-08-07T14:24:02.259Z,98080.44
2022-08-07T14:26:58.062Z,98080.78
2022-08-07T14:30:09.413Z,98076.22
2022-08-07T14:32:08.313Z,98075.66
2022-08-07T14:34:46.073Z,98076.55
2022-08-07T14:37:16.415Z,98077.94
2022-08-07T14:40:18.148Z,98068.42
2022-08-07T14:42:22.492Z,98070.80
2022-08-07T14:44:59.523Z,98069.82
2022-08-07T14:47:32.842Z,98061.70
2022-08-07T14:50:06.019Z,98058.77
2022-08-07T14:52:39.949Z,98054.67
2022-08-07T14:55:11.727Z,98063.20
2022-08-07T14:57:58.477Z,98059.73
2022-08-07T15:00:29.845Z,98060.33
2022-08-07T15:02:57.003Z,98071.91
2022-08-07T15:05:26.089Z,98070.04
2022-08-07T15:07:56.407Z,98067.33
2022-08-07T15:10:29.898Z,98070.80
2022-08-07T15:13:11.703Z,98062.49
2022-08-07T15:15:52.215Z,98072.42
2022-08-07T15:18:33.986Z,98071.93
2022-08-07T15:20:55.597Z,98070.61
2022-08-07T15:26:04.228Z,98077.31
2022-08-07T15:31:12.289Z,98080.16
2022-08-07T15:33:43.783Z,98063.15
2022-08-07T15:36:13.807Z,98063.15
2022-08-07T15:41:23.748Z,98089.87
2022-08-07T15:44:03.231Z,98097.06
2022-08-07T15:46:45.900Z,98100.12
2022-08-07T15:49:13.056Z,98097.42
2022-08-07T15:54:12.367Z,98097.80
2022-08-07T15:56:42.500Z,98096.44
2022-08-07T15:59:17.237Z,98095.97
2022-08-07T16:02:01.978Z,98092.47
2022-08-07T16:04:26.056Z,98096.33
2022-08-07T16:06:57.746Z,98093.23
2022-08-07T16:09:48.477Z,98093.03
2022-08-07T16:12:29.227Z,98089.54
2022-08-07T16:15:04.570Z,98090.44
2022-08-07T16:18:01.890Z,98097.89
2022-08-07T16:20:56.767Z,98091.59
2022-08-07T16:23:53.596Z,98097.86
2022-08-07T16:26:30.439Z,98095.72
2022-08-07T16:29:18.719Z,98098.48
2022-08-07T16:32:06.769Z,98093.04
2022-08-07T16:35:01.484Z,98097.97
2022-08-07T16:38:05.230Z,98100.27
2022-08-07T16:41:01.726Z,98098.62
2022-08-07T16:44:02.484Z,98100.89
2022-08-07T16:47:04.833Z,98084.78
2022-08-07T16:50:27.540Z,98083.39
2022-08-07T16:52:49.270Z,98078.66
2022-08-07T16:55:17.467Z,98082.52
2022-08-07T16:58:08.319Z,98069.74
2022-08-07T17:00:43.031Z,98074.41
2022-08-07T17:03:17.388Z,98067.77
2022-08-07T17:06:28.213Z,98068.02
2022-08-07T17:09:09.605Z,98069.44
2022-08-07T17:11:18.572Z,98075.52
2022-08-07T17:14:19.091Z,98074.17
2022-08-07T17:16:58.528Z,98075.27
2022-08-07T17:20:03.197Z,98068.02
2022-08-07T17:22:16.911Z,98061.51
2022-08-07T17:25:18.514Z,98059.89
2022-08-07T17:28:19.781Z,98050.92
2022-08-07T17:31:15.941Z,98046.02
2022-08-07T17:34:17.914Z,98045.17
2022-08-07T17:36:20.364Z,98041.64
2022-08-07T17:39:15.424Z,98042.22
2022-08-07T17:42:01.979Z,98039.50
2022-08-07T17:44:34.164Z,98032.94
2022-08-07T17:47:16.986Z,98035.25
2022-08-07T17:50:03.602Z,98044.00
2022-08-07T17:52:42.933Z,98032.02
2022-08-07T17:56:01.172Z,98024.93
2022-08-07T17:58:01.427Z,98024.43
2022-08-07T18:00:34.712Z,98030.12
2022-08-07T18:03:09.341Z,98012.92
2022-08-07T18:06:03.058Z,98013.76
2022-08-07T18:08:26.146Z,98015.15
2022-08-07T18:12:07.517Z,98014.35
2022-08-07T18:14:09.580Z,98004.76
2022-08-07T18:16:57.434Z,97997.60
2022-08-07T18:21:07.958Z,97985.58
2022-08-07T18:22:28.607Z,97984.81
2022-08-07T18:25:00.943Z,97976.88
2022-08-07T18:27:55.041Z,97972.20
2022-08-07T18:30:43.408Z,97969.72
2022-08-07T18:33:35.446Z,97962.62
2022-08-07T18:36:32.752Z,97966.23
2022-08-07T18:40:07.165Z,97963.77
2022-08-07T18:42:17.523Z,97964.03
2022-08-07T18:45:43.559Z,97950.65
2022-08-07T18:48:00.830Z,97960.50
2022-08-07T18:50:44.062Z,97952.04
2022-08-07T18:53:14.684Z,97942.19
2022-08-07T18:55:55.876Z,97949.82
2022-08-07T18:58:43.284Z,97939.09
2022-08-07T19:02:18.017Z,97941.30
2022-08-07T19:04:28.106Z,97935.30
2022-08-07T19:06:57.396Z,97932.59
2022-08-07T19:09:57.350Z,97926.56
2022-08-07T19:12:18.846Z,97926.86
2022-08-07T19:16:03.178Z,97929.32
2022-08-07T19:18:16.777Z,97927.97
2022-08-07T19:21:08.932Z,97923.86
2022-08-07T19:23:58.308Z,97922.80
2022-08-07T19:26:29.208Z,97928.80
2022-08-07T19:31:06.120Z,97929.64
2022-08-07T19:32:03.517Z,97925.53
2022-08-07T19:34:06.251Z,97909.65
2022-08-07T19:36:44.600Z,97906.64
2022-08-07T19:39:17.141Z,97914.30
2022-08-07T19:42:08.543Z,97919.53
2022-08-07T19:44:22.470Z,97924.45
2022-08-07T19:46:55.633Z,97915.69
2022-08-07T19:49:56.507Z,97898.39
2022-08-07T19:52:00.638Z,97919.23
2022-08-07T19:54:34.343Z,97913.16
2022-08-07T19:58:02.924Z,97900.82
2022-08-07T19:59:41.182Z,97894.28
2022-08-07T20:02:15.314Z,97876.48
2022-08-07T20:04:45.190Z,97888.30
2022-08-07T20:07:23.776Z,97875.45
2022-08-07T20:10:34.130Z,97879.02
2022-08-07T20:12:34.547Z,97885.33
2022-08-07T20:14:58.336Z,97878.75
2022-08-07T20:17:29.064Z,97880.42
2022-08-07T20:20:00.669Z,97881.23
2022-08-07T20:25:28.612Z,97875.81
2022-08-07T20:28:03.553Z,97868.38
2022-08-07T20:30:36.970Z,97866.50
2022-08-07T20:33:36.557Z,97857.72
2022-08-07T20:35:51.962Z,97861.58
2022-08-07T20:38:23.315Z,97861.84
2022-08-07T20:40:58.504Z,97858.55
2022-08-07T20:43:32.367Z,97852.02
2022-08-07T20:46:25.922Z,97846.80
2022-08-07T20:48:36.670Z,97836.95
2022-08-07T20:51:09.725Z,97823.27
2022-08-07T20:54:03.729Z,97829.31
2022-08-07T20:56:12.809Z,97824.66
2022-08-07T20:58:44.235Z,97825.47
2022-08-07T21:01:19.742Z,97826.84
2022-08-07T21:04:13.121Z,97816.70
2022-08-07T21:06:28.501Z,97815.63
2022-08-07T21:09:03.460Z,97808.23
2022-08-07T21:11:50.295Z,97806.58
2022-08-07T21:14:31.667Z,97801.95
2022-08-07T21:18:01.125Z,97796.19
2022-08-07T21:19:51.357Z,97797.85
2022-08-07T21:22:06.937Z,97793.19
2022-08-07T21:24:47.978Z,97794.01
2022-08-07T21:27:40.044Z,97790.16
2022-08-07T21:30:10.404Z,97787.98
2022-08-07T21:33:07.162Z,97778.13
2022-08-07T21:36:12.000Z,97785.52
2022-08-07T21:38:50.055Z,97787.73
2022-08-07T21:41:28.307Z,97784.14
2022-08-07T21:44:28.303Z,97777.03
2022-08-07T21:46:51.781Z,97774.56
2022-08-07T21:49:40.818Z,97776.23
2022-08-07T21:52:11.622Z,97775.41
2022-08-07T21:55:01.252Z,97768.57
2022-08-07T21:57:44.411Z,97772.12
2022-08-07T22:00:22.396Z,97778.67
2022-08-07T22:02:45.588Z,97776.22
2022-08-07T22:05:43.946Z,97775.13
2022-08-07T22:07:59.496Z,97772.39
2022-08-07T22:10:26.272Z,97767.47
2022-08-07T22:13:05.705Z,97774.05
2022-08-07T22:16:43.510Z,97760.87
2022-08-07T22:18:37.407Z,97762.81
2022-08-07T22:21:21.262Z,97767.73
2022-08-07T22:24:05.909Z,97764.99
2022-08-07T22:26:52.515Z,97765.28
2022-08-07T22:29:47.450Z,97763.91
2022-08-07T22:32:20.526Z,97761.44
2022-08-07T22:34:56.066Z,97760.07
2022-08-07T22:38:03.255Z,97758.70
2022-08-07T22:40:36.983Z,97761.99
2022-08-07T22:43:23.424Z,97758.70
2022-08-07T22:46:21.812Z,97762.25
2022-08-07T22:49:01.436Z,97761.17
2022-08-07T22:51:43.895Z,97751.03
2022-08-07T22:54:26.916Z,97753.51
2022-08-07T22:57:12.674Z,97753.44
2022-08-07T22:59:51.991Z,97759.77
2022-08-07T23:02:27.638Z,97749.09
2022-08-07T23:06:08.625Z,97752.13
2022-08-07T23:08:22.173Z,97744.19
2022-08-07T23:11:13.244Z,97755.69
2022-08-07T23:14:15.540Z,97754.58
2022-08-07T23:16:48.349Z,97758.43
2022-08-07T23:19:51.446Z,97754.03
2022-08-07T23:22:52.334Z,97749.66
2022-08-07T23:25:49.600Z,97748.27
2022-08-07T23:28:29.129Z,97751.31
2022-08-07T23:32:49.567Z,97746.92
2022-08-07T23:34:20.215Z,97737.09
2022-08-07T23:37:19.964Z,97739.81
2022-08-07T23:39:41.155Z,97732.69
2022-08-07T23:42:43.490Z,97736.80
2022-08-07T23:45:33.413Z,97732.69
2022-08-07T23:48:03.027Z,97728.88
2022-08-07T23:50:38.765Z,97726.12
2022-08-07T23:53:17.271Z,97720.05
2022-08-07T23:55:55.877Z,97719.27
2022-08-07T23:58:35.660Z,97722.58
